Time;durP1;ratioP1;P1;durP2;ratioP2;P2;SDS_P1;SDS_P2;PMS_P1;PMS_P2;Temp;Humidity;BMP_temperature;BMP_pressure;BME280_temperature;BME280_humidity;BME280_pressure;Samples;Min_cycle;Max_cycle;Signal;HPM_P1;HPM_P2
2024/04/14 00:00:16;;;;;;;8.47;4.40;;;18.60;99.70;;;;;;5491173;26;20450;-61
2024/04/14 00:02:42;;;;;;;8.73;4.40;;;18.70;99.70;;;;;;5491450;26;20765;-61
2024/04/14 00:05:10;;;;;;;7.63;4.80;;;18.70;99.70;;;;;;5491403;26;20438;-61
2024/04/14 00:07:37;;;;;;;7.03;4.63;;;18.70;99.60;;;;;;5492708;26;20265;-61
2024/04/14 00:10:05;;;;;;;5.23;4.73;;;18.80;99.50;;;;;;5491874;26;20539;-62
2024/04/14 00:12:31;;;;;;;8.70;5.10;;;18.80;99.30;;;;;;5490848;26;20462;-61
2024/04/14 00:15:00;;;;;;;5.87;4.90;;;18.80;99.30;;;;;;5490867;26;20505;-62
2024/04/14 00:17:28;;;;;;;5.53;5.00;;;18.80;99.40;;;;;;5491165;26;20845;-61
2024/04/14 00:19:56;;;;;;;7.60;5.37;;;18.70;99.40;;;;;;5490638;26;20584;-61
2024/04/14 00:22:22;;;;;;;6.93;5.20;;;18.70;99.50;;;;;;5490336;26;20517;-61
2024/04/14 00:24:50;;;;;;;6.23;4.30;;;18.70;99.60;;;;;;5490071;26;20586;-62
2024/04/14 00:27:16;;;;;;;5.97;5.27;;;18.60;99.70;;;;;;5490564;26;20322;-61
2024/04/14 00:29:45;;;;;;;8.10;5.10;;;18.60;99.90;;;;;;5492204;26;20462;-61
2024/04/14 00:32:11;;;;;;;5.90;4.13;;;18.50;99.90;;;;;;5494090;26;20225;-61
2024/04/14 00:34:42;;;;;;;6.20;4.40;;;18.40;99.20;;;;;;5493023;26;20918;-62
2024/04/14 00:37:08;;;;;;;4.33;3.93;;;18.40;98.60;;;;;;5493184;26;20450;-62
2024/04/14 00:39:36;;;;;;;6.30;4.20;;;18.30;98.00;;;;;;5493533;26;20505;-62
2024/04/14 00:42:02;;;;;;;4.40;4.00;;;18.20;97.50;;;;;;5494655;26;20733;-62
2024/04/14 00:44:30;;;;;;;4.40;3.87;;;18.10;97.10;;;;;;5493604;26;20469;-62
2024/04/14 00:46:56;;;;;;;6.37;4.10;;;18.00;96.60;;;;;;5493993;26;20857;-62
2024/04/14 00:49:26;;;;;;;5.60;3.90;;;17.90;96.10;;;;;;5493796;26;20458;-61
2024/04/14 00:51:55;;;;;;;4.43;3.67;;;17.90;95.80;;;;;;5494334;26;20509;-61
2024/04/14 00:54:24;;;;;;;4.90;3.80;;;17.80;95.60;;;;;;5494645;26;21080;-62
2024/04/14 00:56:50;;;;;;;6.03;3.80;;;17.70;95.10;;;;;;5502228;26;20971;-62
2024/04/14 00:59:19;;;;;;;4.80;3.20;;;17.70;94.80;;;;;;5501624;26;20540;-61
2024/04/14 01:01:44;;;;;;;4.50;3.40;;;17.60;94.70;;;;;;5500348;26;20300;-61
2024/04/14 01:04:13;;;;;;;4.77;2.90;;;17.50;94.70;;;;;;5500743;26;20454;-61
2024/04/14 01:06:39;;;;;;;4.10;3.20;;;17.40;94.50;;;;;;5498778;26;20213;-62
2024/04/14 01:09:11;;;;;;;5.00;3.43;;;17.40;94.70;;;;;;5502189;26;20441;-62
2024/04/14 01:11:37;;;;;;;7.20;3.47;;;17.30;94.80;;;;;;5503006;26;20255;-61
2024/04/14 01:14:06;;;;;;;5.70;3.23;;;17.20;95.00;;;;;;5500023;26;20462;-61
2024/04/14 01:16:36;;;;;;;5.67;3.43;;;17.10;95.20;;;;;;5496939;26;20577;-61
2024/04/14 01:19:06;;;;;;;6.27;3.70;;;17.10;95.60;;;;;;5495624;26;20555;-62
2024/04/14 01:21:32;;;;;;;4.80;3.40;;;17.00;95.90;;;;;;5496505;26;20486;-61
2024/04/14 01:24:00;;;;;;;9.13;3.73;;;16.90;96.20;;;;;;5498248;26;20501;-61
2024/04/14 01:26:28;;;;;;;9.70;3.57;;;16.90;96.50;;;;;;5496181;26;20541;-61
2024/04/14 01:28:57;;;;;;;4.07;3.60;;;16.80;96.70;;;;;;5493950;26;20442;-61
2024/04/14 01:31:23;;;;;;;5.83;3.30;;;16.80;96.60;;;;;;5493259;26;20900;-61
2024/04/14 01:33:53;;;;;;;3.93;3.30;;;16.70;96.10;;;;;;5492615;26;20568;-61
2024/04/14 01:36:19;;;;;;;5.33;3.10;;;16.70;95.80;;;;;;5492914;26;20201;-62
2024/04/14 01:38:47;;;;;;;5.00;3.03;;;16.70;95.80;;;;;;5492295;26;21029;-62
2024/04/14 01:41:13;;;;;;;4.87;3.00;;;16.60;95.60;;;;;;5491962;26;20274;-61
2024/04/14 01:43:44;;;;;;;4.03;2.50;;;16.60;95.40;;;;;;5492842;26;20457;-61
2024/04/14 01:46:10;;;;;;;4.73;2.73;;;16.60;95.00;;;;;;5492906;26;20337;-61
2024/04/14 01:48:38;;;;;;;3.47;2.60;;;16.60;94.60;;;;;;5494832;26;20465;-61
2024/04/14 01:51:04;;;;;;;4.50;2.27;;;16.50;94.20;;;;;;5498050;26;20225;-62
2024/04/14 01:53:32;;;;;;;5.10;2.30;;;16.50;93.90;;;;;;5498105;26;20564;-62
2024/04/14 01:56:00;;;;;;;3.03;2.63;;;16.40;93.70;;;;;;5501409;26;20538;-62
2024/04/14 01:58:29;;;;;;;6.73;2.80;;;16.40;93.60;;;;;;5509643;26;20494;-61
2024/04/14 02:03:25;;;;;;;2.80;2.00;;;16.20;93.50;;;;;;5438273;21;20584;-64
2024/04/14 02:05:57;;;;;;;3.50;2.50;;;16.10;93.60;;;;;;5419182;26;20207;-64
2024/04/14 02:08:26;;;;;;;4.30;2.43;;;16.00;93.70;;;;;;5419336;26;20530;-64
2024/04/14 02:10:52;;;;;;;3.30;2.13;;;16.00;93.60;;;;;;5419412;26;20489;-64
2024/04/14 02:13:20;;;;;;;5.70;2.00;;;15.90;93.60;;;;;;5419161;26;20453;-65
2024/04/14 02:15:46;;;;;;;3.17;1.87;;;15.80;93.60;;;;;;5419210;26;20211;-64
2024/04/14 02:18:14;;;;;;;4.03;1.93;;;15.80;93.80;;;;;;5418876;26;20837;-64
2024/04/14 02:20:44;;;;;;;3.80;1.80;;;15.70;94.00;;;;;;5418660;26;20219;-65
2024/04/14 02:23:13;;;;;;;4.97;2.60;;;15.60;94.10;;;;;;5418572;26;20604;-65
2024/04/14 02:25:38;;;;;;;4.50;2.00;;;15.60;94.40;;;;;;5418453;26;20521;-64
2024/04/14 02:28:07;;;;;;;3.43;2.23;;;15.50;94.50;;;;;;5418537;26;20453;-64
2024/04/14 02:30:33;;;;;;;3.60;2.60;;;15.50;94.90;;;;;;5418637;26;20215;-64
2024/04/14 02:33:01;;;;;;;4.83;2.43;;;15.40;95.10;;;;;;5418357;26;20473;-64
2024/04/14 02:35:27;;;;;;;4.03;2.47;;;15.40;95.40;;;;;;5418221;26;20464;-64
2024/04/14 02:37:58;;;;;;;2.90;2.20;;;15.40;95.50;;;;;;5418698;26;20449;-65
2024/04/14 02:40:24;;;;;;;3.60;2.60;;;15.40;95.70;;;;;;5418513;26;20741;-65
2024/04/14 02:42:52;;;;;;;3.90;2.47;;;15.30;95.80;;;;;;5418457;26;20481;-65
2024/04/14 02:45:18;;;;;;;6.50;2.43;;;15.30;95.90;;;;;;5418399;26;20328;-65
2024/04/14 02:47:46;;;;;;;7.53;2.10;;;15.30;96.00;;;;;;5418713;26;20457;-64
2024/04/14 02:50:12;;;;;;;3.10;2.53;;;15.30;96.10;;;;;;5418354;26;20267;-64
2024/04/14 02:52:41;;;;;;;4.03;2.07;;;15.30;96.20;;;;;;5416518;26;20468;-65
2024/04/14 02:55:09;;;;;;;5.90;2.70;;;15.30;96.20;;;;;;5418106;26;20505;-64
2024/04/14 02:57:38;;;;;;;6.40;2.80;;;15.30;96.30;;;;;;5418000;26;20497;-64
2024/04/14 03:00:04;;;;;;;2.93;2.30;;;15.30;96.40;;;;;;5418939;26;20460;-64
2024/04/14 03:02:33;;;;;;;4.83;2.40;;;15.30;96.60;;;;;;5417981;26;20575;-64
2024/04/14 03:04:58;;;;;;;4.40;2.03;;;15.30;96.80;;;;;;5417837;26;20585;-64
2024/04/14 03:07:27;;;;;;;6.00;2.30;;;15.20;97.00;;;;;;5417877;26;20875;-64
2024/04/14 03:09:53;;;;;;;4.07;2.60;;;15.20;97.10;;;;;;5418184;26;20524;-64
2024/04/14 03:12:24;;;;;;;6.03;2.20;;;15.20;97.30;;;;;;5418116;26;20576;-64
2024/04/14 03:14:49;;;;;;;4.50;2.20;;;15.20;97.40;;;;;;5418551;26;20511;-64
2024/04/14 03:17:20;;;;;;;4.50;2.47;;;15.20;97.60;;;;;;5418246;26;21141;-64
2024/04/14 03:19:50;;;;;;;7.83;3.40;;;15.10;97.60;;;;;;5418340;26;20242;-64
2024/04/14 03:22:19;;;;;;;4.30;2.23;;;15.20;97.80;;;;;;5417862;26;20472;-64
2024/04/14 03:24:45;;;;;;;5.10;2.37;;;15.10;97.40;;;;;;5417890;26;20596;-64
2024/04/14 03:27:13;;;;;;;4.47;2.20;;;15.10;97.40;;;;;;5417873;26;20465;-64
2024/04/14 03:29:44;;;;;;;4.63;2.33;;;15.10;97.50;;;;;;5417856;26;20745;-64
2024/04/14 03:32:13;;;;;;;4.30;2.30;;;15.10;97.60;;;;;;5418123;26;20517;-64
2024/04/14 03:34:38;;;;;;;6.90;2.70;;;15.00;97.60;;;;;;5417937;26;20994;-64
2024/04/14 03:37:09;;;;;;;5.80;2.37;;;15.00;97.70;;;;;;5417787;26;20457;-64
2024/04/14 03:39:37;;;;;;;4.90;2.50;;;15.00;97.90;;;;;;5417534;26;20208;-65
2024/04/14 03:42:07;;;;;;;9.53;2.67;;;14.90;98.10;;;;;;5427540;26;20517;-63
2024/04/14 03:44:35;;;;;;;4.97;2.70;;;14.90;98.20;;;;;;5423751;26;20449;-64
2024/04/14 03:47:06;;;;;;;3.93;2.70;;;14.90;98.50;;;;;;5417576;26;20572;-64
2024/04/14 03:49:34;;;;;;;4.97;2.33;;;14.80;98.60;;;;;;5417566;26;20500;-65
2024/04/14 03:52:00;;;;;;;4.73;2.63;;;14.80;98.80;;;;;;5417433;26;20473;-65
2024/04/14 03:54:28;;;;;;;5.00;2.87;;;14.80;99.10;;;;;;5417242;26;20557;-64
2024/04/14 03:56:54;;;;;;;5.03;2.53;;;14.80;99.30;;;;;;5417147;26;20262;-64
2024/04/14 03:59:23;;;;;;;8.00;2.90;;;14.80;99.60;;;;;;5417085;26;20441;-64
2024/04/14 04:01:48;;;;;;;3.80;2.03;;;14.80;99.80;;;;;;5416773;26;20756;-64
2024/04/14 04:04:19;;;;;;;4.70;2.40;;;14.80;99.90;;;;;;5416539;26;20571;-64
2024/04/14 04:06:45;;;;;;;4.90;2.37;;;14.70;99.90;;;;;;5417201;26;20281;-64
2024/04/14 04:09:14;;;;;;;4.57;2.20;;;14.70;99.90;;;;;;5417076;26;20457;-64
2024/04/14 04:13:35;;;;;;;3.83;2.70;;;14.70;99.90;;;;;;5508526;25;20576;-64
2024/04/14 04:16:03;;;;;;;7.90;2.70;;;14.70;99.90;;;;;;5508246;25;20525;-64
2024/04/14 04:18:32;;;;;;;7.30;2.80;;;14.70;99.90;;;;;;5508429;25;21030;-64
2024/04/14 04:20:59;;;;;;;9.33;2.90;;;14.70;99.90;;;;;;5508949;25;20995;-65
2024/04/14 04:23:28;;;;;;;6.67;3.73;;;14.60;99.90;;;;;;5508801;25;20966;-64
2024/04/14 04:25:55;;;;;;;4.33;3.23;;;14.60;99.90;;;;;;5508560;25;20437;-64
2024/04/14 04:28:24;;;;;;;8.80;3.53;;;14.60;99.90;;;;;;5508649;25;20536;-64
2024/04/14 04:30:53;;;;;;;4.93;2.73;;;14.60;99.90;;;;;;5508856;25;20497;-64
2024/04/14 04:33:23;;;;;;;4.80;1.40;;;14.60;99.90;;;;;;5508205;25;20506;-64
2024/04/14 04:35:53;;;;;;;1.83;1.33;;;14.50;99.90;;;;;;5508674;25;20488;-64
2024/04/14 04:38:21;;;;;;;3.93;1.80;;;14.40;97.50;;;;;;5508346;25;20450;-65
2024/04/14 04:40:47;;;;;;;3.97;1.47;;;14.20;96.80;;;;;;5508279;25;20465;-64
2024/04/14 04:43:15;;;;;;;4.30;1.33;;;14.20;96.20;;;;;;5508305;25;20579;-64
2024/04/14 04:45:41;;;;;;;1.67;0.90;;;14.10;94.90;;;;;;5508167;25;20316;-64
2024/04/14 04:48:12;;;;;;;2.13;1.23;;;14.10;93.20;;;;;;5508001;25;20449;-65
2024/04/14 04:50:38;;;;;;;3.53;1.10;;;14.10;91.30;;;;;;5508503;25;20690;-65
2024/04/14 04:53:07;;;;;;;2.10;1.47;;;14.10;90.10;;;;;;5509703;25;20532;-64
2024/04/14 04:55:33;;;;;;;4.00;1.20;;;14.00;89.20;;;;;;5508737;25;20342;-64
2024/04/14 04:58:01;;;;;;;1.90;1.10;;;14.00;88.70;;;;;;5508067;25;20874;-64
2024/04/14 05:00:27;;;;;;;1.80;1.00;;;14.00;87.90;;;;;;5507739;25;20336;-64
2024/04/14 05:02:55;;;;;;;1.80;0.90;;;13.90;87.00;;;;;;5508269;25;20994;-64
2024/04/14 05:05:24;;;;;;;2.83;1.17;;;13.90;87.20;;;;;;5508613;25;20550;-65
2024/04/14 05:07:52;;;;;;;6.07;1.67;;;13.80;87.50;;;;;;5508640;25;20885;-64
2024/04/14 05:10:18;;;;;;;5.40;1.60;;;13.80;88.00;;;;;;5508473;25;20441;-66
2024/04/14 05:12:46;;;;;;;4.03;1.37;;;13.70;88.50;;;;;;5534520;25;20989;-65
2024/04/14 05:15:12;;;;;;;1.40;1.10;;;13.70;88.70;;;;;;5545360;25;20216;-65
2024/04/14 05:17:40;;;;;;;3.23;1.30;;;13.70;89.10;;;;;;5545174;25;21083;-65
2024/04/14 05:20:07;;;;;;;2.37;1.17;;;13.60;89.50;;;;;;5545417;25;20263;-65
2024/04/14 05:22:38;;;;;;;1.93;1.10;;;13.60;90.00;;;;;;5545289;25;20472;-64
2024/04/14 05:25:04;;;;;;;3.40;1.13;;;13.60;90.10;;;;;;5528822;26;20444;-64
2024/04/14 05:27:33;;;;;;;2.30;1.30;;;13.70;90.20;;;;;;5528828;26;20538;-64
2024/04/14 05:29:58;;;;;;;1.20;1.00;;;13.70;90.40;;;;;;5529002;26;20493;-64
2024/04/14 05:32:27;;;;;;;6.07;1.37;;;13.70;90.50;;;;;;5529104;26;20899;-64
2024/04/14 05:34:53;;;;;;;1.97;1.20;;;13.70;90.70;;;;;;5531006;26;20216;-65
2024/04/14 05:37:21;;;;;;;4.30;1.10;;;13.70;90.80;;;;;;5531150;26;20500;-64
2024/04/14 05:39:50;;;;;;;5.13;1.60;;;13.70;90.90;;;;;;5529609;26;20220;-64
2024/04/14 05:42:18;;;;;;;2.37;1.40;;;13.70;90.80;;;;;;5528529;26;20476;-64
2024/04/14 05:44:46;;;;;;;5.43;1.33;;;13.70;90.60;;;;;;5528532;26;20919;-64
2024/04/14 05:47:14;;;;;;;2.93;1.10;;;13.80;90.30;;;;;;5529229;26;20441;-64
2024/04/14 05:49:40;;;;;;;2.63;1.30;;;13.70;89.50;;;;;;5529080;26;20609;-64
2024/04/14 05:52:09;;;;;;;3.63;1.63;;;13.70;88.20;;;;;;5529841;26;20496;-65
2024/04/14 05:54:34;;;;;;;4.73;1.53;;;13.70;87.60;;;;;;5529350;26;20224;-65
2024/04/14 05:57:06;;;;;;;5.43;1.70;;;13.70;87.10;;;;;;5529646;26;21014;-64
2024/04/14 05:59:32;;;;;;;2.93;1.30;;;13.80;86.60;;;;;;5529618;26;20534;-65
2024/04/14 06:02:01;;;;;;;2.97;1.33;;;13.90;85.50;;;;;;5529434;26;20472;-65
2024/04/14 06:04:27;;;;;;;4.77;1.90;;;14.00;84.10;;;;;;5529265;26;20554;-64
2024/04/14 06:06:55;;;;;;;4.13;1.50;;;14.10;81.60;;;;;;5529990;26;20452;-64
2024/04/14 06:09:23;;;;;;;2.93;1.37;;;14.10;80.70;;;;;;5528672;26;20212;-65
2024/04/14 06:11:51;;;;;;;7.70;1.70;;;14.10;80.10;;;;;;5528157;26;20480;-64
2024/04/14 06:14:21;;;;;;;2.30;1.27;;;14.10;79.90;;;;;;5529742;26;20445;-65
2024/04/14 06:16:49;;;;;;;4.13;1.57;;;14.10;79.00;;;;;;5530180;26;20549;-65
2024/04/14 06:19:17;;;;;;;4.13;1.40;;;14.20;78.70;;;;;;5529781;26;20447;-65
2024/04/14 06:21:45;;;;;;;4.73;1.30;;;14.20;78.30;;;;;;5530023;26;20464;-66
2024/04/14 06:24:12;;;;;;;4.70;1.80;;;14.30;78.00;;;;;;5530417;26;20922;-65
2024/04/14 06:26:40;;;;;;;6.20;1.83;;;14.30;77.40;;;;;;5531167;26;20489;-64
2024/04/14 06:29:06;;;;;;;3.43;1.30;;;14.40;76.70;;;;;;5530771;26;20493;-65
2024/04/14 06:31:37;;;;;;;3.77;1.50;;;14.40;76.00;;;;;;5528948;26;20531;-64
2024/04/14 06:34:03;;;;;;;4.37;1.20;;;14.40;75.40;;;;;;5529603;26;20211;-65
2024/04/14 06:36:31;;;;;;;2.97;1.10;;;14.40;74.90;;;;;;5527800;26;20505;-64
2024/04/14 06:38:57;;;;;;;3.00;1.20;;;14.40;74.10;;;;;;5528930;26;20220;-65
2024/04/14 06:41:26;;;;;;;3.37;1.43;;;14.30;72.50;;;;;;5530695;26;20472;-65
2024/04/14 06:43:52;;;;;;;5.90;2.40;;;14.30;72.40;;;;;;5531177;26;20504;-64
2024/04/14 06:46:20;;;;;;;3.20;1.33;;;14.20;72.00;;;;;;5530070;26;20558;-65
2024/04/14 06:48:48;;;;;;;3.27;1.07;;;14.20;71.60;;;;;;5529223;26;20307;-66
2024/04/14 06:51:17;;;;;;;5.87;1.40;;;14.20;70.80;;;;;;5528840;26;20505;-67
2024/04/14 06:53:43;;;;;;;4.70;1.60;;;14.20;70.10;;;;;;5528803;26;20553;-65
2024/04/14 06:56:11;;;;;;;2.40;0.90;;;14.30;69.70;;;;;;5528686;26;20453;-65
2024/04/14 06:58:37;;;;;;;3.50;1.10;;;14.40;69.40;;;;;;5529540;26;20254;-65
2024/04/14 07:01:05;;;;;;;2.70;1.00;;;14.50;68.60;;;;;;5528627;26;20550;-65
2024/04/14 07:03:31;;;;;;;5.17;1.47;;;14.70;66.50;;;;;;5528302;26;20308;-65
2024/04/14 07:06:03;;;;;;;4.17;0.90;;;14.80;63.60;;;;;;5528052;26;20445;-66
2024/04/14 07:08:29;;;;;;;2.53;1.13;;;14.90;62.40;;;;;;5527864;26;20456;-65
2024/04/14 07:10:57;;;;;;;2.00;0.90;;;15.00;61.70;;;;;;5527828;26;20453;-66
2024/04/14 07:13:23;;;;;;;2.13;1.03;;;15.00;60.30;;;;;;5528343;26;20227;-64
2024/04/14 07:15:51;;;;;;;3.73;1.13;;;14.90;59.00;;;;;;5528052;26;20440;-65
2024/04/14 07:18:17;;;;;;;5.97;2.03;;;14.80;58.00;;;;;;5528243;26;20742;-66
2024/04/14 07:20:46;;;;;;;6.93;1.33;;;14.80;58.20;;;;;;5528823;26;20453;-66
2024/04/14 07:23:14;;;;;;;5.27;1.37;;;14.80;58.40;;;;;;5528614;26;20312;-65
2024/04/14 07:25:43;;;;;;;2.87;1.00;;;14.80;59.00;;;;;;5528375;26;20989;-67
2024/04/14 07:28:08;;;;;;;1.70;0.70;;;14.80;59.40;;;;;;5529054;26;20565;-65
2024/04/14 07:30:38;;;;;;;4.50;1.33;;;14.80;59.40;;;;;;5528881;26;20448;-66
2024/04/14 07:33:04;;;;;;;4.43;1.30;;;14.80;59.30;;;;;;5528024;26;20517;-65
2024/04/14 07:35:32;;;;;;;3.57;1.43;;;14.70;59.30;;;;;;5529031;26;20436;-64
2024/04/14 07:37:58;;;;;;;4.93;1.30;;;14.70;58.80;;;;;;5530276;26;20457;-65
2024/04/14 07:40:29;;;;;;;4.50;1.37;;;14.80;58.00;;;;;;5527856;26;20448;-64
2024/04/14 07:42:55;;;;;;;3.37;1.10;;;14.70;57.40;;;;;;5528204;26;20228;-66
2024/04/14 07:45:24;;;;;;;1.53;1.10;;;14.80;57.50;;;;;;5528722;26;20507;-66
2024/04/14 07:47:49;;;;;;;4.00;1.10;;;15.00;57.10;;;;;;5528156;26;20212;-65
2024/04/14 07:50:18;;;;;;;3.00;1.30;;;15.10;56.50;;;;;;5528399;26;20843;-65
2024/04/14 07:52:44;;;;;;;2.37;1.10;;;15.20;56.10;;;;;;5528106;26;20239;-66
2024/04/14 07:55:13;;;;;;;4.03;1.57;;;15.20;56.20;;;;;;5528174;26;20448;-63
2024/04/14 07:57:41;;;;;;;3.90;1.40;;;15.20;56.30;;;;;;5528595;26;20285;-65
2024/04/14 08:00:11;;;;;;;4.80;1.03;;;15.20;56.60;;;;;;5528330;26;21034;-66
2024/04/14 08:02:41;;;;;;;4.77;1.27;;;15.20;56.70;;;;;;5528397;26;20469;-65
2024/04/14 08:05:07;;;;;;;3.40;1.10;;;15.20;56.70;;;;;;5527767;26;20562;-65
2024/04/14 08:07:36;;;;;;;5.30;1.30;;;15.10;57.20;;;;;;5528182;26;20453;-65
2024/04/14 08:10:02;;;;;;;3.73;1.10;;;15.20;57.80;;;;;;5528041;26;21069;-68
2024/04/14 08:12:30;;;;;;;2.93;1.10;;;15.00;57.80;;;;;;5527440;26;20465;-65
2024/04/14 08:14:59;;;;;;;3.03;1.17;;;14.90;57.90;;;;;;5527425;26;20519;-66
2024/04/14 08:17:28;;;;;;;5.40;1.40;;;14.80;57.00;;;;;;5527352;26;20558;-67
2024/04/14 08:19:55;;;;;;;4.10;1.37;;;14.80;56.40;;;;;;5527310;26;20441;-66
2024/04/14 08:22:23;;;;;;;3.80;1.10;;;14.80;56.60;;;;;;5527060;26;20804;-65
2024/04/14 08:24:49;;;;;;;4.33;1.37;;;14.90;55.80;;;;;;5527117;26;20445;-66
2024/04/14 08:27:17;;;;;;;4.47;1.50;;;15.00;54.80;;;;;;5527425;26;20516;-64
2024/04/14 08:29:43;;;;;;;7.40;1.30;;;14.90;53.90;;;;;;5526930;26;20321;-65
2024/04/14 08:32:14;;;;;;;4.83;1.40;;;14.90;54.10;;;;;;5528294;26;20460;-66
2024/04/14 08:34:40;;;;;;;2.93;1.20;;;14.90;54.30;;;;;;5527271;26;20456;-65
2024/04/14 08:37:09;;;;;;;5.30;1.37;;;14.90;54.80;;;;;;5528162;26;20536;-65
2024/04/14 08:39:35;;;;;;;4.37;1.23;;;14.90;55.50;;;;;;5528491;26;20613;-66
2024/04/14 08:42:07;;;;;;;6.77;2.37;;;15.00;55.80;;;;;;5526641;26;20468;-65
2024/04/14 08:44:35;;;;;;;2.80;1.33;;;15.00;56.10;;;;;;5526967;26;20428;-65
2024/04/14 08:47:06;;;;;;;3.83;1.37;;;15.00;56.40;;;;;;5526425;26;20508;-65
2024/04/14 08:49:36;;;;;;;4.77;1.90;;;14.90;56.60;;;;;;5526720;26;20460;-65
2024/04/14 08:52:07;;;;;;;3.03;1.50;;;14.80;57.10;;;;;;5526997;26;20507;-65
2024/04/14 08:54:33;;;;;;;1.90;1.10;;;14.90;55.70;;;;;;5526514;26;20562;-66
2024/04/14 08:57:04;;;;;;;3.47;1.20;;;14.90;53.40;;;;;;5526582;26;20509;-64
2024/04/14 08:59:30;;;;;;;3.17;1.17;;;14.90;52.20;;;;;;5529240;26;20553;-64
2024/04/14 09:02:00;;;;;;;3.20;1.10;;;14.80;51.80;;;;;;5531053;26;20464;-65
2024/04/14 09:04:28;;;;;;;4.40;1.10;;;14.80;52.00;;;;;;5531871;26;20489;-66
2024/04/14 09:06:59;;;;;;;2.93;1.10;;;14.90;52.60;;;;;;5530848;26;20453;-67
2024/04/14 09:09:25;;;;;;;3.33;1.23;;;15.00;52.40;;;;;;5530993;26;20847;-66
2024/04/14 09:11:53;;;;;;;4.93;1.40;;;15.00;51.40;;;;;;5530312;26;20508;-65
2024/04/14 09:14:19;;;;;;;2.73;0.80;;;15.00;51.00;;;;;;5529447;26;20208;-66
2024/04/14 09:16:48;;;;;;;2.90;1.10;;;15.10;51.00;;;;;;5529962;26;20444;-65
2024/04/14 09:19:14;;;;;;;2.60;1.30;;;15.10;50.50;;;;;;5529715;26;20587;-66
2024/04/14 09:21:42;;;;;;;3.03;1.30;;;15.10;50.20;;;;;;5529769;26;20981;-66
2024/04/14 09:24:11;;;;;;;5.17;1.53;;;15.10;50.10;;;;;;5529742;26;20467;-66
2024/04/14 09:26:39;;;;;;;3.77;1.50;;;15.10;50.70;;;;;;5529542;26;20452;-66
2024/04/14 09:29:07;;;;;;;5.00;1.23;;;15.10;50.10;;;;;;5528771;26;20501;-64
2024/04/14 09:31:35;;;;;;;4.70;1.00;;;15.10;50.40;;;;;;5529713;26;20551;-65
2024/04/14 09:34:03;;;;;;;1.87;1.03;;;15.10;50.30;;;;;;5529840;26;20882;-65
2024/04/14 09:36:31;;;;;;;2.40;1.03;;;15.30;50.40;;;;;;5528817;26;20452;-65
2024/04/14 09:39:00;;;;;;;3.37;1.17;;;15.40;49.70;;;;;;5528958;26;20457;-64
2024/04/14 09:41:31;;;;;;;3.00;1.13;;;15.40;48.60;;;;;;5530353;26;20476;-67
2024/04/14 09:43:59;;;;;;;4.63;1.37;;;15.40;48.20;;;;;;5529202;26;20571;-65
2024/04/14 09:46:32;;;;;;;4.10;1.13;;;15.50;48.10;;;;;;5528641;26;20512;-65
2024/04/14 09:48:58;;;;;;;3.53;1.10;;;15.50;47.50;;;;;;5528890;26;20453;-66
2024/04/14 09:51:29;;;;;;;2.20;1.10;;;15.40;47.50;;;;;;5528830;26;20457;-65
2024/04/14 09:53:58;;;;;;;4.70;1.20;;;15.50;48.00;;;;;;5529565;26;20493;-65
2024/04/14 09:56:27;;;;;;;2.10;0.80;;;15.40;46.80;;;;;;5530247;26;21014;-64
2024/04/14 09:58:56;;;;;;;3.03;1.10;;;15.30;45.90;;;;;;5529179;26;20497;-65
2024/04/14 10:01:29;;;;;;;5.27;1.20;;;15.20;45.70;;;;;;5529054;26;20561;-66
2024/04/14 10:03:58;;;;;;;2.93;1.10;;;15.30;45.60;;;;;;5528803;26;20457;-65
2024/04/14 10:06:29;;;;;;;2.00;0.80;;;15.40;45.30;;;;;;5528533;26;20445;-64
2024/04/14 10:08:56;;;;;;;3.50;1.27;;;15.40;44.60;;;;;;5528960;26;20500;-66
2024/04/14 10:11:25;;;;;;;2.27;0.90;;;15.40;43.40;;;;;;5528998;26;20472;-65
2024/04/14 10:13:55;;;;;;;1.67;0.80;;;15.50;43.20;;;;;;5528712;26;20512;-64
2024/04/14 10:16:25;;;;;;;1.07;0.70;;;15.50;42.60;;;;;;5529644;26;20499;-64
2024/04/14 10:18:52;;;;;;;3.83;1.50;;;15.60;42.70;;;;;;5530164;26;20512;-65
2024/04/14 10:21:22;;;;;;;2.23;0.93;;;15.60;42.40;;;;;;5529706;26;20472;-64
2024/04/14 10:23:49;;;;;;;3.83;1.20;;;15.50;42.70;;;;;;5529650;26;20448;-66
2024/04/14 10:26:18;;;;;;;2.27;1.03;;;15.50;43.00;;;;;;5529449;26;20850;-65
2024/04/14 10:28:51;;;;;;;3.20;1.00;;;15.70;43.60;;;;;;5530069;26;20449;-64
2024/04/14 10:31:30;;;;;;;3.30;1.63;;;15.80;43.40;;;;;;5528800;26;20520;-65
2024/04/14 10:34:03;;;;;;;5.13;1.20;;;15.80;43.80;;;;;;5529157;26;20566;-66
2024/04/14 10:36:32;;;;;;;3.40;0.80;;;15.90;44.00;;;;;;5527611;26;20558;-65
2024/04/14 10:38:58;;;;;;;3.07;1.10;;;16.00;43.90;;;;;;5527511;26;21109;-65
2024/04/14 10:41:27;;;;;;;4.83;1.30;;;16.00;43.90;;;;;;5528641;26;20464;-65
2024/04/14 10:43:53;;;;;;;3.83;1.10;;;16.00;43.80;;;;;;5529274;26;20997;-65
2024/04/14 10:46:21;;;;;;;2.60;0.97;;;16.10;44.10;;;;;;5529446;26;20436;-63
2024/04/14 10:48:49;;;;;;;3.63;1.10;;;16.30;43.90;;;;;;5529150;26;20452;-65
2024/04/14 10:51:18;;;;;;;3.70;1.27;;;16.40;43.50;;;;;;5528883;26;20504;-64
2024/04/14 10:53:44;;;;;;;3.80;0.90;;;16.50;43.20;;;;;;5528681;26;20512;-64
2024/04/14 10:56:12;;;;;;;2.90;1.07;;;16.40;42.50;;;;;;5528068;26;20553;-64
2024/04/14 10:58:38;;;;;;;3.33;0.90;;;16.40;42.20;;;;;;5528880;26;20212;-66
2024/04/14 11:01:07;;;;;;;2.60;0.77;;;16.40;42.10;;;;;;5528229;26;20487;-65
2024/04/14 11:03:33;;;;;;;3.20;1.17;;;16.30;42.10;;;;;;5528443;26;20475;-65
2024/04/14 11:06:04;;;;;;;1.67;0.80;;;16.30;42.50;;;;;;5528285;26;20870;-66
2024/04/14 11:08:30;;;;;;;3.03;1.10;;;16.30;42.20;;;;;;5528705;26;20695;-64
2024/04/14 11:10:59;;;;;;;4.23;1.00;;;16.30;41.90;;;;;;5527870;26;20452;-65
2024/04/14 11:13:27;;;;;;;4.93;1.23;;;16.30;42.10;;;;;;5528044;26;20576;-65
2024/04/14 11:15:58;;;;;;;3.70;1.20;;;16.40;42.20;;;;;;5527641;26;20445;-65
2024/04/14 11:18:28;;;;;;;8.63;1.57;;;16.50;42.50;;;;;;5527906;26;20538;-65
2024/04/14 11:20:57;;;;;;;3.60;0.90;;;16.60;42.80;;;;;;5526620;26;20792;-64
2024/04/14 11:23:27;;;;;;;3.07;1.37;;;16.70;42.60;;;;;;5527711;26;20457;-64
2024/04/14 11:25:56;;;;;;;3.43;1.20;;;16.80;42.60;;;;;;5528009;26;20553;-64
2024/04/14 11:28:22;;;;;;;2.10;1.23;;;16.90;42.10;;;;;;5526783;26;20456;-65
2024/04/14 11:30:51;;;;;;;3.70;1.43;;;16.80;41.10;;;;;;5527721;26;20558;-65
2024/04/14 11:33:20;;;;;;;2.63;0.90;;;16.70;40.90;;;;;;5526975;26;20228;-66
2024/04/14 11:35:49;;;;;;;2.77;1.00;;;16.60;41.00;;;;;;5527405;26;20445;-64
2024/04/14 11:38:16;;;;;;;3.37;1.10;;;16.50;41.20;;;;;;5527445;26;20437;-65
2024/04/14 11:40:47;;;;;;;3.63;1.57;;;16.40;41.40;;;;;;5527671;26;20452;-65
2024/04/14 11:43:13;;;;;;;4.70;1.30;;;16.30;41.60;;;;;;5527589;26;20480;-64
2024/04/14 11:45:49;;;;;;;3.60;1.37;;;16.20;41.90;;;;;;5526906;26;20496;-65
2024/04/14 11:48:17;;;;;;;3.43;0.93;;;16.10;42.00;;;;;;5527753;26;20820;-66
2024/04/14 11:50:45;;;;;;;1.67;0.90;;;16.20;42.10;;;;;;5529279;26;20917;-65
2024/04/14 11:53:11;;;;;;;3.03;0.90;;;16.30;42.00;;;;;;5527875;26;20813;-63
2024/04/14 11:55:40;;;;;;;4.03;0.90;;;16.40;41.00;;;;;;5527510;26;20989;-66
2024/04/14 11:58:08;;;;;;;5.37;1.00;;;16.50;40.10;;;;;;5527199;26;20448;-66
2024/04/14 12:00:37;;;;;;;5.30;1.10;;;16.50;39.70;;;;;;5527164;26;20437;-65
2024/04/14 12:03:03;;;;;;;3.27;1.07;;;16.80;38.90;;;;;;5527462;26;20480;-64
2024/04/14 12:05:31;;;;;;;3.23;1.00;;;17.00;38.30;;;;;;5527608;26;20491;-65
2024/04/14 12:07:58;;;;;;;2.20;0.80;;;17.10;37.00;;;;;;5527234;26;20558;-65
2024/04/14 12:10:26;;;;;;;5.77;1.57;;;17.00;36.40;;;;;;5527495;26;20444;-65
2024/04/14 12:12:55;;;;;;;2.83;1.07;;;16.70;36.50;;;;;;5526390;26;20516;-64
2024/04/14 12:15:23;;;;;;;2.77;0.97;;;16.40;37.30;;;;;;5526661;26;20789;-64
2024/04/14 12:17:52;;;;;;;2.37;1.50;;;16.30;38.10;;;;;;5526456;26;20440;-65
2024/04/14 12:20:18;;;;;;;3.30;1.60;;;16.20;38.70;;;;;;5527146;26;20497;-64
2024/04/14 12:22:46;;;;;;;4.30;1.10;;;16.30;38.80;;;;;;5527111;26;20464;-65
2024/04/14 12:25:12;;;;;;;2.70;0.90;;;16.40;38.60;;;;;;5526617;26;20308;-66
2024/04/14 12:27:41;;;;;;;2.93;0.90;;;16.60;38.40;;;;;;5527734;26;20588;-66
2024/04/14 12:30:07;;;;;;;2.40;0.80;;;16.70;38.10;;;;;;5525997;26;20562;-65
2024/04/14 12:32:38;;;;;;;5.00;1.10;;;16.80;38.00;;;;;;5529422;26;20464;-65
2024/04/14 12:35:05;;;;;;;2.03;1.07;;;16.90;37.70;;;;;;5529927;26;20939;-64
2024/04/14 12:37:34;;;;;;;3.67;1.00;;;16.90;36.60;;;;;;5530702;26;20515;-66
2024/04/14 12:40:00;;;;;;;4.43;1.00;;;16.80;36.20;;;;;;5529828;26;20456;-65
2024/04/14 12:42:28;;;;;;;4.90;1.10;;;16.80;36.70;;;;;;5529256;26;20826;-64
2024/04/14 12:44:54;;;;;;;2.83;1.00;;;16.70;37.20;;;;;;5530360;26;20585;-65
2024/04/14 12:47:22;;;;;;;3.03;1.07;;;16.80;37.50;;;;;;5530186;26;20452;-64
2024/04/14 12:49:51;;;;;;;2.37;0.90;;;16.90;37.50;;;;;;5530569;26;20212;-65
2024/04/14 12:52:19;;;;;;;3.73;1.00;;;16.90;37.50;;;;;;5530942;26;20461;-65
2024/04/14 12:54:46;;;;;;;3.70;1.00;;;16.80;37.20;;;;;;5529760;26;20444;-65